sensor_id;sensor_type;location;lat;lon;timestamp;P1;durP1;ratioP1;P2;durP2;ratioP2
1262;SDS011;62267;50.112;8.704;2022-10-12T00:01:44;11.80;;;5.63;;
1262;SDS011;62267;50.112;8.704;2022-10-12T00:04:30;7.27;;;4.70;;
1262;SDS011;62267;50.112;8.704;2022-10-12T00:07:17;8.60;;;5.20;;
1262;SDS011;62267;50.112;8.704;2022-10-12T00:10:03;5.20;;;4.40;;
1262;SDS011;62267;50.112;8.704;2022-10-12T00:12:49;6.03;;;4.37;;
1262;SDS011;62267;50.112;8.704;2022-10-12T00:15:36;7.00;;;4.77;;
1262;SDS011;62267;50.112;8.704;2022-10-12T00:18:23;7.20;;;5.10;;
1262;SDS011;62267;50.112;8.704;2022-10-12T00:21:11;9.87;;;4.93;;
1262;SDS011;62267;50.112;8.704;2022-10-12T00:23:57;6.33;;;4.47;;
1262;SDS011;62267;50.112;8.704;2022-10-12T00:26:43;8.17;;;4.70;;
1262;SDS011;62267;50.112;8.704;2022-10-12T00:29:29;8.93;;;6.07;;
1262;SDS011;62267;50.112;8.704;2022-10-12T00:32:16;10.60;;;5.33;;
1262;SDS011;62267;50.112;8.704;2022-10-12T00:35:02;11.00;;;4.93;;
1262;SDS011;62267;50.112;8.704;2022-10-12T00:37:55;10.87;;;5.43;;
1262;SDS011;62267;50.112;8.704;2022-10-12T00:40:41;11.33;;;4.60;;
1262;SDS011;62267;50.112;8.704;2022-10-12T00:43:31;7.50;;;4.60;;
1262;SDS011;62267;50.112;8.704;2022-10-12T00:49:09;5.90;;;4.50;;
1262;SDS011;62267;50.112;8.704;2022-10-12T00:51:57;7.07;;;4.33;;
1262;SDS011;62267;50.112;8.704;2022-10-12T00:54:46;9.67;;;4.13;;
1262;SDS011;62267;50.112;8.704;2022-10-12T00:57:33;8.17;;;5.47;;
1262;SDS011;62267;50.112;8.704;2022-10-12T01:00:19;14.77;;;6.37;;
1262;SDS011;62267;50.112;8.704;2022-10-12T01:03:08;15.20;;;5.97;;
1262;SDS011;62267;50.112;8.704;2022-10-12T01:05:55;6.70;;;4.83;;
1262;SDS011;62267;50.112;8.704;2022-10-12T01:08:41;7.10;;;4.63;;
1262;SDS011;62267;50.112;8.704;2022-10-12T01:11:27;9.30;;;5.10;;
1262;SDS011;62267;50.112;8.704;2022-10-12T01:14:13;6.47;;;4.00;;
1262;SDS011;62267;50.112;8.704;2022-10-12T01:19:53;4.87;;;3.97;;
1262;SDS011;62267;50.112;8.704;2022-10-12T01:22:45;6.70;;;4.13;;
1262;SDS011;62267;50.112;8.704;2022-10-12T01:25:46;7.33;;;4.37;;
1262;SDS011;62267;50.112;8.704;2022-10-12T01:28:40;13.77;;;5.40;;
1262;SDS011;62267;50.112;8.704;2022-10-12T01:40:11;8.50;;;4.60;;
1262;SDS011;62267;50.112;8.704;2022-10-12T01:42:59;6.30;;;5.03;;
1262;SDS011;62267;50.112;8.704;2022-10-12T01:45:46;6.00;;;4.80;;
1262;SDS011;62267;50.112;8.704;2022-10-12T01:48:32;8.43;;;4.67;;
1262;SDS011;62267;50.112;8.704;2022-10-12T01:51:20;6.13;;;3.93;;
1262;SDS011;62267;50.112;8.704;2022-10-12T01:57:07;6.80;;;4.33;;
1262;SDS011;62267;50.112;8.704;2022-10-12T02:03:02;6.43;;;4.30;;
1262;SDS011;62267;50.112;8.704;2022-10-12T02:05:54;6.67;;;5.10;;
1262;SDS011;62267;50.112;8.704;2022-10-12T02:08:55;10.33;;;4.50;;
1262;SDS011;62267;50.112;8.704;2022-10-12T02:11:42;7.03;;;4.60;;
1262;SDS011;62267;50.112;8.704;2022-10-12T02:14:31;8.43;;;4.63;;
1262;SDS011;62267;50.112;8.704;2022-10-12T02:17:20;6.77;;;4.60;;
1262;SDS011;62267;50.112;8.704;2022-10-12T02:20:07;8.70;;;5.30;;
1262;SDS011;62267;50.112;8.704;2022-10-12T02:22:53;8.63;;;4.73;;
1262;SDS011;62267;50.112;8.704;2022-10-12T02:25:40;6.00;;;3.90;;
1262;SDS011;62267;50.112;8.704;2022-10-12T02:28:27;6.00;;;4.07;;
1262;SDS011;62267;50.112;8.704;2022-10-12T02:31:21;7.17;;;4.17;;
1262;SDS011;62267;50.112;8.704;2022-10-12T02:34:10;13.53;;;5.43;;
1262;SDS011;62267;50.112;8.704;2022-10-12T02:37:05;8.00;;;4.50;;
1262;SDS011;62267;50.112;8.704;2022-10-12T02:39:53;8.07;;;4.57;;
1262;SDS011;62267;50.112;8.704;2022-10-12T02:42:42;6.30;;;4.13;;
1262;SDS011;62267;50.112;8.704;2022-10-12T02:45:51;5.23;;;3.97;;
1262;SDS011;62267;50.112;8.704;2022-10-12T02:48:38;9.47;;;4.73;;
1262;SDS011;62267;50.112;8.704;2022-10-12T02:51:25;8.30;;;4.13;;
1262;SDS011;62267;50.112;8.704;2022-10-12T02:54:12;4.80;;;4.30;;
1262;SDS011;62267;50.112;8.704;2022-10-12T02:56:58;8.07;;;4.13;;
1262;SDS011;62267;50.112;8.704;2022-10-12T02:59:44;9.27;;;4.80;;
1262;SDS011;62267;50.112;8.704;2022-10-12T03:02:30;7.20;;;4.33;;
1262;SDS011;62267;50.112;8.704;2022-10-12T03:05:15;9.00;;;5.23;;
1262;SDS011;62267;50.112;8.704;2022-10-12T03:08:01;10.27;;;4.60;;
1262;SDS011;62267;50.112;8.704;2022-10-12T03:10:47;10.53;;;6.73;;
1262;SDS011;62267;50.112;8.704;2022-10-12T03:13:33;10.50;;;4.27;;
1262;SDS011;62267;50.112;8.704;2022-10-12T03:16:22;7.80;;;4.20;;
1262;SDS011;62267;50.112;8.704;2022-10-12T03:19:08;12.63;;;5.27;;
1262;SDS011;62267;50.112;8.704;2022-10-12T03:21:54;8.80;;;5.37;;
1262;SDS011;62267;50.112;8.704;2022-10-12T03:24:40;9.20;;;5.13;;
1262;SDS011;62267;50.112;8.704;2022-10-12T03:27:26;11.47;;;5.07;;
1262;SDS011;62267;50.112;8.704;2022-10-12T03:30:12;7.23;;;4.27;;
1262;SDS011;62267;50.112;8.704;2022-10-12T03:32:58;11.73;;;5.00;;
1262;SDS011;62267;50.112;8.704;2022-10-12T03:35:44;9.07;;;5.00;;
1262;SDS011;62267;50.112;8.704;2022-10-12T03:38:30;10.50;;;5.27;;
1262;SDS011;62267;50.112;8.704;2022-10-12T03:41:16;7.20;;;5.60;;
1262;SDS011;62267;50.112;8.704;2022-10-12T03:44:02;8.47;;;5.13;;
1262;SDS011;62267;50.112;8.704;2022-10-12T03:46:47;7.17;;;4.70;;
1262;SDS011;62267;50.112;8.704;2022-10-12T03:49:33;8.70;;;4.70;;
1262;SDS011;62267;50.112;8.704;2022-10-12T03:52:19;9.93;;;4.53;;
1262;SDS011;62267;50.112;8.704;2022-10-12T03:55:05;5.93;;;4.50;;
1262;SDS011;62267;50.112;8.704;2022-10-12T03:57:50;7.70;;;5.10;;
1262;SDS011;62267;50.112;8.704;2022-10-12T04:00:36;10.33;;;5.20;;
1262;SDS011;62267;50.112;8.704;2022-10-12T04:03:22;8.40;;;6.40;;
1262;SDS011;62267;50.112;8.704;2022-10-12T04:06:08;9.00;;;5.73;;
1262;SDS011;62267;50.112;8.704;2022-10-12T04:08:54;7.57;;;5.20;;
1262;SDS011;62267;50.112;8.704;2022-10-12T04:11:40;8.17;;;5.47;;
1262;SDS011;62267;50.112;8.704;2022-10-12T04:14:25;8.33;;;6.00;;
1262;SDS011;62267;50.112;8.704;2022-10-12T04:17:11;8.53;;;5.40;;
1262;SDS011;62267;50.112;8.704;2022-10-12T04:19:57;7.07;;;4.17;;
1262;SDS011;62267;50.112;8.704;2022-10-12T04:22:43;9.60;;;5.57;;
1262;SDS011;62267;50.112;8.704;2022-10-12T04:25:28;15.57;;;6.67;;
1262;SDS011;62267;50.112;8.704;2022-10-12T04:28:14;9.83;;;5.30;;
1262;SDS011;62267;50.112;8.704;2022-10-12T04:31:00;8.37;;;4.90;;
1262;SDS011;62267;50.112;8.704;2022-10-12T04:33:45;10.03;;;5.50;;
1262;SDS011;62267;50.112;8.704;2022-10-12T04:36:31;8.90;;;5.30;;
1262;SDS011;62267;50.112;8.704;2022-10-12T04:39:20;6.73;;;5.10;;
1262;SDS011;62267;50.112;8.704;2022-10-12T04:42:06;7.93;;;5.37;;
1262;SDS011;62267;50.112;8.704;2022-10-12T04:44:52;7.13;;;5.57;;
1262;SDS011;62267;50.112;8.704;2022-10-12T04:47:38;6.20;;;5.10;;
1262;SDS011;62267;50.112;8.704;2022-10-12T04:50:24;8.03;;;4.83;;
1262;SDS011;62267;50.112;8.704;2022-10-12T04:53:13;6.00;;;4.87;;
1262;SDS011;62267;50.112;8.704;2022-10-12T04:56:03;12.07;;;5.40;;
1262;SDS011;62267;50.112;8.704;2022-10-12T04:58:49;8.17;;;5.53;;
1262;SDS011;62267;50.112;8.704;2022-10-12T05:01:35;15.37;;;6.33;;
1262;SDS011;62267;50.112;8.704;2022-10-12T05:04:21;12.37;;;5.63;;
1262;SDS011;62267;50.112;8.704;2022-10-12T05:07:07;9.47;;;6.77;;
1262;SDS011;62267;50.112;8.704;2022-10-12T05:09:53;11.17;;;7.03;;
1262;SDS011;62267;50.112;8.704;2022-10-12T05:12:39;11.20;;;7.20;;
1262;SDS011;62267;50.112;8.704;2022-10-12T05:15:26;9.90;;;6.13;;
1262;SDS011;62267;50.112;8.704;2022-10-12T05:18:12;11.57;;;6.07;;
1262;SDS011;62267;50.112;8.704;2022-10-12T05:20:58;9.60;;;5.80;;
1262;SDS011;62267;50.112;8.704;2022-10-12T05:23:48;13.10;;;7.33;;
1262;SDS011;62267;50.112;8.704;2022-10-12T05:26:34;12.60;;;6.50;;
1262;SDS011;62267;50.112;8.704;2022-10-12T05:29:20;9.43;;;6.27;;
1262;SDS011;62267;50.112;8.704;2022-10-12T05:32:06;12.43;;;5.60;;
1262;SDS011;62267;50.112;8.704;2022-10-12T05:34:52;10.33;;;6.33;;
1262;SDS011;62267;50.112;8.704;2022-10-12T05:37:39;12.73;;;6.33;;
1262;SDS011;62267;50.112;8.704;2022-10-12T05:40:25;14.37;;;7.50;;
1262;SDS011;62267;50.112;8.704;2022-10-12T05:43:12;11.30;;;6.53;;
1262;SDS011;62267;50.112;8.704;2022-10-12T05:45:58;9.20;;;6.23;;
1262;SDS011;62267;50.112;8.704;2022-10-12T05:48:44;7.30;;;5.20;;
1262;SDS011;62267;50.112;8.704;2022-10-12T05:51:30;11.80;;;6.13;;
1262;SDS011;62267;50.112;8.704;2022-10-12T05:54:16;10.23;;;7.00;;
1262;SDS011;62267;50.112;8.704;2022-10-12T05:57:03;12.13;;;6.30;;
1262;SDS011;62267;50.112;8.704;2022-10-12T05:59:49;5.97;;;5.37;;
1262;SDS011;62267;50.112;8.704;2022-10-12T06:02:35;12.23;;;6.97;;
1262;SDS011;62267;50.112;8.704;2022-10-12T06:05:21;9.73;;;5.80;;
1262;SDS011;62267;50.112;8.704;2022-10-12T06:08:08;9.97;;;6.17;;
1262;SDS011;62267;50.112;8.704;2022-10-12T06:10:54;13.00;;;6.80;;
1262;SDS011;62267;50.112;8.704;2022-10-12T06:13:40;11.97;;;5.77;;
1262;SDS011;62267;50.112;8.704;2022-10-12T06:16:26;9.30;;;5.53;;
1262;SDS011;62267;50.112;8.704;2022-10-12T06:19:12;7.77;;;5.47;;
1262;SDS011;62267;50.112;8.704;2022-10-12T06:21:58;7.50;;;5.20;;
1262;SDS011;62267;50.112;8.704;2022-10-12T06:24:45;10.07;;;6.00;;
1262;SDS011;62267;50.112;8.704;2022-10-12T06:27:31;8.87;;;5.77;;
1262;SDS011;62267;50.112;8.704;2022-10-12T06:30:19;7.17;;;5.27;;
1262;SDS011;62267;50.112;8.704;2022-10-12T06:33:09;11.50;;;6.40;;
1262;SDS011;62267;50.112;8.704;2022-10-12T06:35:58;12.60;;;6.20;;
1262;SDS011;62267;50.112;8.704;2022-10-12T06:38:44;9.73;;;6.07;;
1262;SDS011;62267;50.112;8.704;2022-10-12T06:41:30;9.23;;;6.00;;
1262;SDS011;62267;50.112;8.704;2022-10-12T06:44:16;14.73;;;7.17;;
1262;SDS011;62267;50.112;8.704;2022-10-12T06:47:02;13.00;;;7.73;;
1262;SDS011;62267;50.112;8.704;2022-10-12T06:49:48;7.33;;;6.20;;
1262;SDS011;62267;50.112;8.704;2022-10-12T06:52:34;9.73;;;7.03;;
1262;SDS011;62267;50.112;8.704;2022-10-12T06:55:20;11.10;;;6.53;;
1262;SDS011;62267;50.112;8.704;2022-10-12T06:58:06;11.40;;;7.27;;
1262;SDS011;62267;50.112;8.704;2022-10-12T07:00:52;15.70;;;8.07;;
1262;SDS011;62267;50.112;8.704;2022-10-12T07:03:39;14.47;;;7.00;;
1262;SDS011;62267;50.112;8.704;2022-10-12T07:06:25;8.03;;;6.47;;
1262;SDS011;62267;50.112;8.704;2022-10-12T07:09:10;10.67;;;6.93;;
1262;SDS011;62267;50.112;8.704;2022-10-12T07:11:56;7.53;;;6.20;;
1262;SDS011;62267;50.112;8.704;2022-10-12T07:14:42;11.63;;;6.50;;
1262;SDS011;62267;50.112;8.704;2022-10-12T07:17:28;8.40;;;5.50;;
1262;SDS011;62267;50.112;8.704;2022-10-12T07:20:14;7.77;;;5.03;;
1262;SDS011;62267;50.112;8.704;2022-10-12T07:22:59;9.27;;;6.70;;
1262;SDS011;62267;50.112;8.704;2022-10-12T07:25:49;10.10;;;5.90;;
1262;SDS011;62267;50.112;8.704;2022-10-12T07:28:36;12.60;;;6.00;;
1262;SDS011;62267;50.112;8.704;2022-10-12T07:31:21;8.43;;;6.20;;
1262;SDS011;62267;50.112;8.704;2022-10-12T07:34:07;10.53;;;5.70;;
1262;SDS011;62267;50.112;8.704;2022-10-12T07:36:53;12.00;;;6.60;;
1262;SDS011;62267;50.112;8.704;2022-10-12T07:39:43;10.30;;;6.93;;
1262;SDS011;62267;50.112;8.704;2022-10-12T07:42:29;6.07;;;5.47;;
1262;SDS011;62267;50.112;8.704;2022-10-12T07:45:14;6.23;;;5.60;;
1262;SDS011;62267;50.112;8.704;2022-10-12T07:48:00;11.27;;;6.13;;
1262;SDS011;62267;50.112;8.704;2022-10-12T07:50:47;11.77;;;5.77;;
1262;SDS011;62267;50.112;8.704;2022-10-12T07:53:34;9.10;;;5.63;;
1262;SDS011;62267;50.112;8.704;2022-10-12T07:56:20;13.20;;;5.87;;
1262;SDS011;62267;50.112;8.704;2022-10-12T07:59:06;6.53;;;5.80;;
1262;SDS011;62267;50.112;8.704;2022-10-12T08:01:52;11.63;;;6.40;;
1262;SDS011;62267;50.112;8.704;2022-10-12T08:04:38;9.30;;;6.13;;
1262;SDS011;62267;50.112;8.704;2022-10-12T08:07:25;7.80;;;5.47;;
1262;SDS011;62267;50.112;8.704;2022-10-12T08:10:12;9.63;;;6.23;;
1262;SDS011;62267;50.112;8.704;2022-10-12T08:12:58;9.07;;;6.33;;
1262;SDS011;62267;50.112;8.704;2022-10-12T08:15:48;10.90;;;6.27;;
1262;SDS011;62267;50.112;8.704;2022-10-12T08:18:34;10.97;;;6.20;;
1262;SDS011;62267;50.112;8.704;2022-10-12T08:21:20;9.63;;;6.20;;
1262;SDS011;62267;50.112;8.704;2022-10-12T08:24:06;9.90;;;6.23;;
1262;SDS011;62267;50.112;8.704;2022-10-12T08:26:52;10.00;;;6.10;;
1262;SDS011;62267;50.112;8.704;2022-10-12T08:29:44;10.13;;;6.10;;
1262;SDS011;62267;50.112;8.704;2022-10-12T08:32:30;10.83;;;5.63;;
1262;SDS011;62267;50.112;8.704;2022-10-12T08:35:16;8.27;;;6.50;;
1262;SDS011;62267;50.112;8.704;2022-10-12T08:38:02;11.20;;;6.20;;
1262;SDS011;62267;50.112;8.704;2022-10-12T08:41:03;9.27;;;6.07;;
1262;SDS011;62267;50.112;8.704;2022-10-12T08:46:56;11.83;;;6.20;;
1262;SDS011;62267;50.112;8.704;2022-10-12T08:49:43;10.93;;;6.73;;
1262;SDS011;62267;50.112;8.704;2022-10-12T08:52:35;10.67;;;6.20;;
1262;SDS011;62267;50.112;8.704;2022-10-12T08:58:13;10.23;;;6.83;;
1262;SDS011;62267;50.112;8.704;2022-10-12T09:07:11;9.87;;;6.97;;
1262;SDS011;62267;50.112;8.704;2022-10-12T09:18:39;12.77;;;7.90;;
1262;SDS011;62267;50.112;8.704;2022-10-12T09:21:26;13.37;;;6.97;;
1262;SDS011;62267;50.112;8.704;2022-10-12T09:24:21;7.47;;;6.67;;
1262;SDS011;62267;50.112;8.704;2022-10-12T09:27:12;11.10;;;7.13;;
1262;SDS011;62267;50.112;8.704;2022-10-12T09:30:00;11.70;;;7.17;;
1262;SDS011;62267;50.112;8.704;2022-10-12T09:33:04;11.63;;;7.77;;
1262;SDS011;62267;50.112;8.704;2022-10-12T09:35:54;9.70;;;7.40;;
1262;SDS011;62267;50.112;8.704;2022-10-12T09:38:40;12.77;;;8.13;;
1262;SDS011;62267;50.112;8.704;2022-10-12T09:41:28;11.30;;;7.90;;
1262;SDS011;62267;50.112;8.704;2022-10-12T09:44:25;17.90;;;7.60;;
1262;SDS011;62267;50.112;8.704;2022-10-12T09:48:07;15.70;;;9.00;;
1262;SDS011;62267;50.112;8.704;2022-10-12T09:50:36;10.80;;;8.80;;
1262;SDS011;62267;50.112;8.704;2022-10-12T09:53:27;12.67;;;8.43;;
1262;SDS011;62267;50.112;8.704;2022-10-12T09:56:26;11.30;;;8.00;;
1262;SDS011;62267;50.112;8.704;2022-10-12T09:59:18;11.50;;;8.93;;
1262;SDS011;62267;50.112;8.704;2022-10-12T10:04:54;16.30;;;8.20;;
1262;SDS011;62267;50.112;8.704;2022-10-12T10:07:41;11.90;;;8.73;;
1262;SDS011;62267;50.112;8.704;2022-10-12T10:10:27;13.00;;;8.90;;
1262;SDS011;62267;50.112;8.704;2022-10-12T10:13:15;14.70;;;9.00;;
1262;SDS011;62267;50.112;8.704;2022-10-12T10:16:10;14.43;;;8.40;;
1262;SDS011;62267;50.112;8.704;2022-10-12T10:18:57;13.47;;;7.90;;
1262;SDS011;62267;50.112;8.704;2022-10-12T10:21:43;22.00;;;9.80;;
1262;SDS011;62267;50.112;8.704;2022-10-12T10:24:30;10.63;;;8.17;;
1262;SDS011;62267;50.112;8.704;2022-10-12T10:27:34;11.53;;;9.03;;
1262;SDS011;62267;50.112;8.704;2022-10-12T10:30:23;10.83;;;8.53;;
1262;SDS011;62267;50.112;8.704;2022-10-12T10:33:20;10.33;;;8.70;;
1262;SDS011;62267;50.112;8.704;2022-10-12T10:36:21;18.93;;;11.57;;
1262;SDS011;62267;50.112;8.704;2022-10-12T10:39:13;14.60;;;9.53;;
1262;SDS011;62267;50.112;8.704;2022-10-12T10:42:10;12.77;;;8.80;;
1262;SDS011;62267;50.112;8.704;2022-10-12T10:44:58;9.83;;;8.53;;
1262;SDS011;62267;50.112;8.704;2022-10-12T10:47:44;11.33;;;8.50;;
1262;SDS011;62267;50.112;8.704;2022-10-12T10:50:31;11.50;;;7.67;;
1262;SDS011;62267;50.112;8.704;2022-10-12T10:53:24;16.17;;;10.77;;
1262;SDS011;62267;50.112;8.704;2022-10-12T10:56:11;11.00;;;8.40;;
1262;SDS011;62267;50.112;8.704;2022-10-12T10:59:01;13.00;;;8.27;;
1262;SDS011;62267;50.112;8.704;2022-10-12T11:01:54;13.23;;;8.10;;
1262;SDS011;62267;50.112;8.704;2022-10-12T11:04:41;13.30;;;10.00;;
1262;SDS011;62267;50.112;8.704;2022-10-12T11:07:30;15.43;;;9.10;;
1262;SDS011;62267;50.112;8.704;2022-10-12T11:10:25;17.83;;;10.30;;
1262;SDS011;62267;50.112;8.704;2022-10-12T11:13:23;15.30;;;10.10;;
1262;SDS011;62267;50.112;8.704;2022-10-12T11:19:18;13.73;;;9.20;;
1262;SDS011;62267;50.112;8.704;2022-10-12T11:22:10;12.43;;;8.90;;
1262;SDS011;62267;50.112;8.704;2022-10-12T11:24:58;26.63;;;11.23;;
1262;SDS011;62267;50.112;8.704;2022-10-12T11:27:48;14.60;;;9.40;;
1262;SDS011;62267;50.112;8.704;2022-10-12T11:30:38;18.03;;;10.13;;
1262;SDS011;62267;50.112;8.704;2022-10-12T11:33:29;14.40;;;10.43;;
1262;SDS011;62267;50.112;8.704;2022-10-12T11:36:19;17.47;;;10.63;;
1262;SDS011;62267;50.112;8.704;2022-10-12T11:39:22;14.33;;;9.47;;
1262;SDS011;62267;50.112;8.704;2022-10-12T11:42:13;15.40;;;10.77;;
1262;SDS011;62267;50.112;8.704;2022-10-12T11:45:14;11.60;;;9.63;;
1262;SDS011;62267;50.112;8.704;2022-10-12T11:48:08;15.70;;;9.80;;
1262;SDS011;62267;50.112;8.704;2022-10-12T11:50:56;14.33;;;10.80;;
1262;SDS011;62267;50.112;8.704;2022-10-12T11:56:53;15.50;;;11.47;;
1262;SDS011;62267;50.112;8.704;2022-10-12T11:59:48;16.13;;;11.20;;
1262;SDS011;62267;50.112;8.704;2022-10-12T12:02:37;18.00;;;10.33;;
1262;SDS011;62267;50.112;8.704;2022-10-12T12:05:28;13.43;;;10.30;;
1262;SDS011;62267;50.112;8.704;2022-10-12T12:11:27;11.90;;;9.67;;
1262;SDS011;62267;50.112;8.704;2022-10-12T12:20:58;15.90;;;9.87;;
1262;SDS011;62267;50.112;8.704;2022-10-12T12:23:25;13.67;;;10.10;;
1262;SDS011;62267;50.112;8.704;2022-10-12T12:26:13;16.73;;;11.73;;
1262;SDS011;62267;50.112;8.704;2022-10-12T12:29:14;13.50;;;10.20;;
1262;SDS011;62267;50.112;8.704;2022-10-12T12:32:02;13.13;;;10.50;;
1262;SDS011;62267;50.112;8.704;2022-10-12T12:34:57;12.60;;;10.10;;
1262;SDS011;62267;50.112;8.704;2022-10-12T12:37:45;16.03;;;11.13;;
1262;SDS011;62267;50.112;8.704;2022-10-12T12:40:31;18.63;;;11.87;;
1262;SDS011;62267;50.112;8.704;2022-10-12T12:46:15;14.20;;;10.50;;
1262;SDS011;62267;50.112;8.704;2022-10-12T12:49:01;18.97;;;11.30;;
1262;SDS011;62267;50.112;8.704;2022-10-12T12:51:47;15.97;;;11.50;;
1262;SDS011;62267;50.112;8.704;2022-10-12T12:54:36;15.07;;;10.63;;
1262;SDS011;62267;50.112;8.704;2022-10-12T12:57:40;21.90;;;12.30;;
1262;SDS011;62267;50.112;8.704;2022-10-12T13:12:20;12.67;;;11.27;;
1262;SDS011;62267;50.112;8.704;2022-10-12T13:15:17;13.67;;;12.20;;
1262;SDS011;62267;50.112;8.704;2022-10-12T13:21:25;17.20;;;11.47;;
1262;SDS011;62267;50.112;8.704;2022-10-12T13:24:22;12.30;;;10.53;;
1262;SDS011;62267;50.112;8.704;2022-10-12T13:27:15;24.43;;;11.33;;
1262;SDS011;62267;50.112;8.704;2022-10-12T13:30:09;14.93;;;11.30;;
1262;SDS011;62267;50.112;8.704;2022-10-12T13:33:00;13.93;;;10.97;;
1262;SDS011;62267;50.112;8.704;2022-10-12T13:38:57;18.40;;;12.00;;
1262;SDS011;62267;50.112;8.704;2022-10-12T13:41:42;22.43;;;12.57;;
1262;SDS011;62267;50.112;8.704;2022-10-12T13:44:30;14.10;;;12.10;;
1262;SDS011;62267;50.112;8.704;2022-10-12T13:47:20;17.33;;;12.63;;
1262;SDS011;62267;50.112;8.704;2022-10-12T13:50:15;16.70;;;11.80;;
1262;SDS011;62267;50.112;8.704;2022-10-12T13:53:01;15.50;;;10.80;;
1262;SDS011;62267;50.112;8.704;2022-10-12T13:55:52;14.53;;;11.50;;
1262;SDS011;62267;50.112;8.704;2022-10-12T13:58:39;15.97;;;10.50;;
1262;SDS011;62267;50.112;8.704;2022-10-12T14:01:25;14.53;;;11.40;;
1262;SDS011;62267;50.112;8.704;2022-10-12T14:04:11;11.07;;;9.97;;
1262;SDS011;62267;50.112;8.704;2022-10-12T14:07:04;12.57;;;11.20;;
1262;SDS011;62267;50.112;8.704;2022-10-12T14:09:52;15.70;;;11.67;;
1262;SDS011;62267;50.112;8.704;2022-10-12T14:12:40;14.50;;;11.07;;
1262;SDS011;62267;50.112;8.704;2022-10-12T14:15:29;13.87;;;11.17;;
1262;SDS011;62267;50.112;8.704;2022-10-12T14:18:32;20.97;;;13.70;;
1262;SDS011;62267;50.112;8.704;2022-10-12T14:21:21;16.50;;;10.80;;
1262;SDS011;62267;50.112;8.704;2022-10-12T14:24:07;14.07;;;10.27;;
1262;SDS011;62267;50.112;8.704;2022-10-12T14:26:54;18.27;;;11.83;;
1262;SDS011;62267;50.112;8.704;2022-10-12T14:29:42;17.67;;;13.27;;
1262;SDS011;62267;50.112;8.704;2022-10-12T14:32:36;13.23;;;11.03;;
1262;SDS011;62267;50.112;8.704;2022-10-12T14:35:24;20.17;;;12.57;;
1262;SDS011;62267;50.112;8.704;2022-10-12T14:41:31;14.70;;;10.83;;
1262;SDS011;62267;50.112;8.704;2022-10-12T14:44:19;17.50;;;11.30;;
1262;SDS011;62267;50.112;8.704;2022-10-12T14:47:09;14.07;;;11.47;;
1262;SDS011;62267;50.112;8.704;2022-10-12T14:49:58;14.30;;;10.47;;
1262;SDS011;62267;50.112;8.704;2022-10-12T14:52:52;14.27;;;11.00;;
1262;SDS011;62267;50.112;8.704;2022-10-12T14:55:39;19.17;;;11.50;;
1262;SDS011;62267;50.112;8.704;2022-10-12T14:58:25;11.20;;;9.10;;
1262;SDS011;62267;50.112;8.704;2022-10-12T15:01:11;14.80;;;10.93;;
1262;SDS011;62267;50.112;8.704;2022-10-12T15:03:57;16.03;;;9.97;;
1262;SDS011;62267;50.112;8.704;2022-10-12T15:06:43;18.17;;;10.83;;
1262;SDS011;62267;50.112;8.704;2022-10-12T15:09:34;15.40;;;11.27;;
1262;SDS011;62267;50.112;8.704;2022-10-12T15:12:21;12.83;;;10.50;;
1262;SDS011;62267;50.112;8.704;2022-10-12T15:15:13;13.80;;;10.77;;
1262;SDS011;62267;50.112;8.704;2022-10-12T15:18:02;11.57;;;9.87;;
1262;SDS011;62267;50.112;8.704;2022-10-12T15:20:48;12.37;;;10.57;;
1262;SDS011;62267;50.112;8.704;2022-10-12T15:23:34;16.43;;;10.07;;
1262;SDS011;62267;50.112;8.704;2022-10-12T15:26:20;13.87;;;11.73;;
1262;SDS011;62267;50.112;8.704;2022-10-12T15:29:06;15.20;;;12.00;;
1262;SDS011;62267;50.112;8.704;2022-10-12T15:31:54;16.87;;;12.00;;
1262;SDS011;62267;50.112;8.704;2022-10-12T15:34:40;16.87;;;11.20;;
1262;SDS011;62267;50.112;8.704;2022-10-12T15:37:28;14.17;;;11.23;;
1262;SDS011;62267;50.112;8.704;2022-10-12T15:40:16;15.77;;;11.60;;
1262;SDS011;62267;50.112;8.704;2022-10-12T15:43:02;20.13;;;12.77;;
1262;SDS011;62267;50.112;8.704;2022-10-12T15:45:48;14.83;;;11.97;;
1262;SDS011;62267;50.112;8.704;2022-10-12T15:48:35;16.73;;;13.50;;
1262;SDS011;62267;50.112;8.704;2022-10-12T15:51:24;15.37;;;12.40;;
1262;SDS011;62267;50.112;8.704;2022-10-12T15:54:11;14.70;;;12.60;;
1262;SDS011;62267;50.112;8.704;2022-10-12T15:56:57;20.07;;;12.93;;
1262;SDS011;62267;50.112;8.704;2022-10-12T15:59:43;15.17;;;11.53;;
1262;SDS011;62267;50.112;8.704;2022-10-12T16:02:30;17.87;;;12.87;;
1262;SDS011;62267;50.112;8.704;2022-10-12T16:05:19;21.53;;;12.77;;
1262;SDS011;62267;50.112;8.704;2022-10-12T16:08:06;19.37;;;13.00;;
1262;SDS011;62267;50.112;8.704;2022-10-12T16:10:52;17.20;;;11.90;;
1262;SDS011;62267;50.112;8.704;2022-10-12T16:13:38;19.60;;;15.10;;
1262;SDS011;62267;50.112;8.704;2022-10-12T16:16:33;17.97;;;13.10;;
1262;SDS011;62267;50.112;8.704;2022-10-12T16:19:19;23.30;;;14.50;;
1262;SDS011;62267;50.112;8.704;2022-10-12T16:22:05;19.43;;;13.90;;
1262;SDS011;62267;50.112;8.704;2022-10-12T16:24:51;20.80;;;13.37;;
1262;SDS011;62267;50.112;8.704;2022-10-12T16:27:37;18.73;;;12.53;;
1262;SDS011;62267;50.112;8.704;2022-10-12T16:30:23;20.27;;;13.50;;
1262;SDS011;62267;50.112;8.704;2022-10-12T16:33:09;27.73;;;21.10;;
1262;SDS011;62267;50.112;8.704;2022-10-12T16:35:55;13.93;;;12.43;;
1262;SDS011;62267;50.112;8.704;2022-10-12T16:38:42;24.30;;;14.53;;
1262;SDS011;62267;50.112;8.704;2022-10-12T16:41:27;23.83;;;12.77;;
1262;SDS011;62267;50.112;8.704;2022-10-12T16:44:18;102.13;;;45.03;;
1262;SDS011;62267;50.112;8.704;2022-10-12T16:47:04;106.73;;;55.23;;
1262;SDS011;62267;50.112;8.704;2022-10-12T16:49:50;41.67;;;24.20;;
1262;SDS011;62267;50.112;8.704;2022-10-12T16:52:38;55.00;;;27.80;;
1262;SDS011;62267;50.112;8.704;2022-10-12T16:55:24;48.23;;;27.23;;
1262;SDS011;62267;50.112;8.704;2022-10-12T16:58:10;22.53;;;16.60;;
1262;SDS011;62267;50.112;8.704;2022-10-12T17:00:56;19.73;;;13.70;;
1262;SDS011;62267;50.112;8.704;2022-10-12T17:03:42;15.43;;;12.77;;
1262;SDS011;62267;50.112;8.704;2022-10-12T17:06:28;19.20;;;13.40;;
1262;SDS011;62267;50.112;8.704;2022-10-12T17:09:14;18.93;;;13.40;;
1262;SDS011;62267;50.112;8.704;2022-10-12T17:12:00;18.27;;;13.30;;
1262;SDS011;62267;50.112;8.704;2022-10-12T17:14:46;17.23;;;12.83;;
1262;SDS011;62267;50.112;8.704;2022-10-12T17:17:34;15.10;;;12.17;;
1262;SDS011;62267;50.112;8.704;2022-10-12T17:20:20;20.07;;;13.67;;
1262;SDS011;62267;50.112;8.704;2022-10-12T17:23:06;19.00;;;13.87;;
1262;SDS011;62267;50.112;8.704;2022-10-12T17:25:57;18.77;;;14.47;;
1262;SDS011;62267;50.112;8.704;2022-10-12T17:28:43;22.57;;;14.47;;
1262;SDS011;62267;50.112;8.704;2022-10-12T17:31:28;23.90;;;14.30;;
1262;SDS011;62267;50.112;8.704;2022-10-12T17:34:19;23.27;;;15.23;;
1262;SDS011;62267;50.112;8.704;2022-10-12T17:37:05;20.33;;;14.30;;
1262;SDS011;62267;50.112;8.704;2022-10-12T17:39:54;18.27;;;13.77;;
1262;SDS011;62267;50.112;8.704;2022-10-12T17:42:40;19.17;;;14.57;;
1262;SDS011;62267;50.112;8.704;2022-10-12T17:45:26;27.47;;;13.90;;
1262;SDS011;62267;50.112;8.704;2022-10-12T17:48:12;17.93;;;14.23;;
1262;SDS011;62267;50.112;8.704;2022-10-12T17:51:05;17.13;;;13.43;;
1262;SDS011;62267;50.112;8.704;2022-10-12T17:53:53;19.13;;;15.00;;
1262;SDS011;62267;50.112;8.704;2022-10-12T17:56:39;21.77;;;16.30;;
1262;SDS011;62267;50.112;8.704;2022-10-12T17:59:24;26.47;;;16.00;;
1262;SDS011;62267;50.112;8.704;2022-10-12T18:02:10;19.23;;;14.33;;
1262;SDS011;62267;50.112;8.704;2022-10-12T18:04:56;24.33;;;15.80;;
1262;SDS011;62267;50.112;8.704;2022-10-12T18:07:42;19.07;;;14.43;;
1262;SDS011;62267;50.112;8.704;2022-10-12T18:10:28;21.80;;;16.80;;
1262;SDS011;62267;50.112;8.704;2022-10-12T18:13:14;22.07;;;14.50;;
1262;SDS011;62267;50.112;8.704;2022-10-12T18:16:00;21.07;;;15.27;;
1262;SDS011;62267;50.112;8.704;2022-10-12T18:18:46;20.63;;;14.60;;